KEHA

Elkhart-Morton County Airport

Elkhart, Kansas, USA
METAR KEHA 172055Z AUTO 36007KT 350V050 10SM CLR 08/00 A2998 RMK AO2 T00820000
Observed Flight Rules
Dec-17 @ 20:55 UTC (26 minutes ago) Visual Flight Rules
Wind Visibility Clouds
360° at 7 knots 10 miles
  • Clear skies
Temperatures Readings
Current 8°C / 46°F
Dewpoint 0°C / 32°F
Humidity 57%
Altimeter 29.98" Hg
Pressure 1015 hPa
Elevation 1099
METAR KEHA 172055Z AUTO 36007KT 350V050 10SM CLR 08/00 A2998 RMK AO2 T00820000
Observed Flight Rules
Dec-17 @ 20:55 UTC
(26 minutes ago)
VFR
Wind Visibility
360° at 7 knots 10 miles
Clouds
  • Clear skies
Temperature Dewpoint
8°C / 46°F 0°C / 32°F
Humidity Altimeter Pressure
57% 29.98" Hg 1015 hPa